createdAt,value
2022-09-01T00:00:15.236Z,99293.75
2022-09-01T00:02:43.498Z,99286.88
2022-09-01T00:05:12.957Z,99289.94
2022-09-01T00:07:40.668Z,99285.75
2022-09-01T00:10:09.553Z,99281.16
2022-09-01T00:12:37.802Z,99280.78
2022-09-01T00:15:08.953Z,99271.66
2022-09-01T00:17:36.879Z,99272.41
2022-09-01T00:20:06.172Z,99259.50
2022-09-01T00:22:33.964Z,99259.13
2022-09-01T00:25:02.157Z,99255.31
2022-09-01T00:27:30.915Z,99252.25
2022-09-01T00:30:00.092Z,99251.91
2022-09-01T00:32:28.810Z,99252.28
2022-09-01T00:34:56.619Z,99244.66
2022-09-01T00:37:24.382Z,99245.03
2022-09-01T00:39:52.026Z,99244.66
2022-09-01T00:42:20.062Z,99249.97
2022-09-01T00:44:47.637Z,99247.28
2022-09-01T00:47:17.271Z,99245.41
2022-09-01T00:49:50.439Z,99245.38
2022-09-01T00:52:35.973Z,99246.16
2022-09-01T00:55:12.631Z,99251.84
2022-09-01T00:57:41.847Z,99245.38
2022-09-01T01:00:23.460Z,99241.19
2022-09-01T01:02:56.673Z,99240.44
2022-09-01T01:05:34.194Z,99238.88
2022-09-01T01:08:04.296Z,99251.47
2022-09-01T01:10:37.781Z,99258.66
2022-09-01T01:13:13.996Z,99270.47
2022-09-01T01:15:44.019Z,99277.69
2022-09-01T01:18:22.966Z,99283.41
2022-09-01T01:21:23.220Z,99272.75
2022-09-01T01:24:42.460Z,99262.81
2022-09-01T01:27:10.366Z,99266.88
2022-09-01T01:29:39.885Z,99274.16
2022-09-01T01:32:13.389Z,99268.78
2022-09-01T01:34:43.700Z,99255.16
2022-09-01T01:37:14.300Z,99257.81
2022-09-01T01:39:44.434Z,99257.72
2022-09-01T01:42:12.563Z,99253.94
2022-09-01T01:44:40.833Z,99252.50
2022-09-01T01:47:13.495Z,99248.59
2022-09-01T01:49:43.775Z,99251.66
2022-09-01T01:52:17.418Z,99242.88
2022-09-01T01:54:46.694Z,99245.19
2022-09-01T01:57:18.042Z,99248.59
2022-09-01T01:59:48.514Z,99239.50
2022-09-01T02:02:18.880Z,99252.81
2022-09-01T02:04:46.408Z,99251.28
2022-09-01T02:07:14.970Z,99247.38
2022-09-01T02:09:46.427Z,99245.06
2022-09-01T02:12:21.265Z,99243.56
2022-09-01T02:14:50.204Z,99246.94
2022-09-01T02:17:18.051Z,99242.38
2022-09-01T02:19:47.405Z,99237.47
2022-09-01T02:22:14.914Z,99235.59
2022-09-01T02:24:48.162Z,99231.41
2022-09-01T02:27:25.932Z,99237.97
2022-09-01T02:29:55.435Z,99237.56
2022-09-01T02:32:23.502Z,99233.28
2022-09-01T02:34:53.801Z,99237.97
2022-09-01T02:37:25.534Z,99237.38
2022-09-01T02:39:56.896Z,99258.25
2022-09-01T02:42:29.305Z,99255.72
2022-09-01T02:44:58.791Z,99260.19
2022-09-01T02:47:28.148Z,99253.34
2022-09-01T02:50:03.650Z,99252.56
2022-09-01T02:52:37.613Z,99250.81
2022-09-01T02:55:05.789Z,99246.84
2022-09-01T02:57:34.589Z,99244.13
2022-09-01T03:00:20.844Z,99252.97
2022-09-01T03:02:53.377Z,99252.25
2022-09-01T03:05:27.143Z,99246.69
2022-09-01T03:08:02.740Z,99248.94
2022-09-01T03:10:39.626Z,99250.19
2022-09-01T03:13:20.726Z,99241.41
2022-09-01T03:15:50.289Z,99249.34
2022-09-01T03:18:20.935Z,99240.38
2022-09-01T03:20:51.004Z,99244.69
2022-09-01T03:23:19.622Z,99243.13
2022-09-01T03:25:49.536Z,99239.16
2022-09-01T03:28:17.955Z,99247.13
2022-09-01T03:30:51.047Z,99244.94
2022-09-01T03:33:22.035Z,99253.09
2022-09-01T03:35:50.602Z,99250.56
2022-09-01T03:38:24.640Z,99248.16
2022-09-01T03:41:02.162Z,99250.75
2022-09-01T03:43:35.617Z,99252.84
2022-09-01T03:46:04.443Z,99262.03
2022-09-01T03:48:33.454Z,99267.06
2022-09-01T03:51:03.199Z,99265.00
2022-09-01T03:53:37.748Z,99276.47
2022-09-01T03:56:09.009Z,99275.22
2022-09-01T03:58:36.785Z,99280.88
2022-09-01T04:01:05.008Z,99276.25
2022-09-01T04:03:36.181Z,99278.81
2022-09-01T04:06:09.669Z,99289.03
2022-09-01T04:08:37.846Z,99289.63
2022-09-01T04:11:16.504Z,99274.84
2022-09-01T04:13:47.700Z,99284.31
2022-09-01T04:16:53.673Z,99282.47
2022-09-01T04:19:26.468Z,99287.19
2022-09-01T04:22:01.082Z,99291.66
2022-09-01T04:24:34.963Z,99300.78
2022-09-01T04:27:04.529Z,99295.47
2022-09-01T04:29:33.434Z,99295.72
2022-09-01T04:32:12.702Z,99296.09
2022-09-01T04:34:43.114Z,99290.41
2022-09-01T04:37:21.334Z,99289.88
2022-09-01T04:39:57.679Z,99296.22
2022-09-01T04:42:29.960Z,99300.28
2022-09-01T04:45:09.988Z,99299.88
2022-09-01T04:47:42.578Z,99296.22
2022-09-01T04:50:14.902Z,99292.09
2022-09-01T04:53:06.181Z,99301.19
2022-09-01T04:55:44.429Z,99307.72
2022-09-01T04:58:19.545Z,99303.72
2022-09-01T05:00:52.137Z,99304.66
2022-09-01T05:03:23.567Z,99300.47
2022-09-01T05:06:00.264Z,99299.09
2022-09-01T05:08:29.027Z,99295.53
2022-09-01T05:11:07.646Z,99287.28
2022-09-01T05:13:46.373Z,99289.59
2022-09-01T05:16:22.755Z,99289.69
2022-09-01T05:18:57.102Z,99299.19
2022-09-01T05:21:29.872Z,99293.06
2022-09-01T05:24:01.724Z,99294.22
2022-09-01T05:26:50.931Z,99292.69
2022-09-01T05:29:19.125Z,99292.34
2022-09-01T05:31:50.408Z,99288.63
2022-09-01T05:34:26.781Z,99284.47
2022-09-01T05:36:59.282Z,99280.72
2022-09-01T05:39:28.686Z,99285.28
2022-09-01T05:41:57.321Z,99288.31
2022-09-01T05:44:26.038Z,99293.72
2022-09-01T05:46:57.010Z,99289.91
2022-09-01T05:49:26.200Z,99291.09
2022-09-01T05:51:55.942Z,99294.56
2022-09-01T05:54:27.551Z,99293.78
2022-09-01T05:57:12.855Z,99291.88
2022-09-01T05:59:53.934Z,99297.94
2022-09-01T06:02:26.944Z,99298.31
2022-09-01T06:04:57.019Z,99294.16
2022-09-01T06:07:28.863Z,99295.66
2022-09-01T06:09:59.886Z,99295.63
2022-09-01T06:12:29.077Z,99296.66
2022-09-01T06:14:58.359Z,99304.72
2022-09-01T06:17:28.996Z,99295.94
2022-09-01T06:20:00.941Z,99299.69
2022-09-01T06:22:29.754Z,99294.25
2022-09-01T06:25:02.756Z,99296.56
2022-09-01T06:27:42.629Z,99301.09
2022-09-01T06:30:23.511Z,99308.63
2022-09-01T06:33:10.983Z,99303.19
2022-09-01T06:35:43.923Z,99303.09
2022-09-01T06:38:13.837Z,99307.34
2022-09-01T06:40:45.479Z,99306.63
2022-09-01T06:43:17.262Z,99309.03
2022-09-01T06:45:54.361Z,99311.56
2022-09-01T06:48:24.180Z,99302.81
2022-09-01T06:51:17.291Z,99307.56
2022-09-01T06:53:51.390Z,99311.34
2022-09-01T06:56:19.418Z,99308.59
2022-09-01T06:58:48.830Z,99302.31
2022-09-01T07:01:19.771Z,99306.25
2022-09-01T07:03:53.056Z,99302.78
2022-09-01T07:09:20.084Z,99300.00
2022-09-01T07:12:25.691Z,99304.38
2022-09-01T07:18:03.953Z,99301.63
2022-09-01T07:21:38.880Z,99304.19
2022-09-01T07:24:05.864Z,99298.00
2022-09-01T07:26:35.381Z,99297.78
2022-09-01T07:29:07.073Z,99297.88
2022-09-01T07:34:46.251Z,99297.31
2022-09-01T07:38:03.369Z,99292.19
2022-09-01T07:43:32.607Z,99284.97
2022-09-01T07:46:37.050Z,99279.47
2022-09-01T07:51:55.266Z,99284.81
2022-09-01T07:54:24.831Z,99283.75
2022-09-01T07:56:54.794Z,99278.09
2022-09-01T07:59:23.449Z,99277.09
2022-09-01T08:01:57.393Z,99268.88
2022-09-01T08:04:25.899Z,99275.25
2022-09-01T08:06:53.644Z,99279.97
2022-09-01T08:09:37.162Z,99275.63
2022-09-01T08:12:08.414Z,99275.44
2022-09-01T08:14:43.826Z,99274.59
2022-09-01T08:17:17.495Z,99279.31
2022-09-01T08:20:09.555Z,99273.97
2022-09-01T08:22:52.335Z,99274.34
2022-09-01T08:25:26.546Z,99271.97
2022-09-01T08:28:02.708Z,99273.84
2022-09-01T08:30:32.717Z,99274.56
2022-09-01T08:33:11.417Z,99268.63
2022-09-01T08:35:46.797Z,99272.69
2022-09-01T08:38:16.047Z,99267.09
2022-09-01T08:40:57.118Z,99271.09
2022-09-01T08:44:10.413Z,99270.13
2022-09-01T08:46:43.580Z,99258.00
2022-09-01T08:49:28.276Z,99258.63
2022-09-01T08:52:39.273Z,99256.41
2022-09-01T08:55:32.410Z,99245.00
2022-09-01T08:58:02.227Z,99249.72
2022-09-01T09:01:01.181Z,99249.44
2022-09-01T09:04:02.947Z,99238.03
2022-09-01T09:07:05.708Z,99239.16
2022-09-01T09:09:54.163Z,99229.78
2022-09-01T09:12:49.357Z,99232.16
2022-09-01T09:16:08.478Z,99231.03
2022-09-01T09:18:56.890Z,99225.47
2022-09-01T09:21:42.363Z,99220.50
2022-09-01T09:24:29.210Z,99209.59
2022-09-01T09:27:09.703Z,99220.34
2022-09-01T09:29:38.981Z,99211.41
2022-09-01T09:34:59.513Z,99213.97
2022-09-01T09:37:31.805Z,99215.72
2022-09-01T09:40:15.377Z,99212.72
2022-09-01T09:43:06.521Z,99211.03
2022-09-01T09:45:42.192Z,99215.13
2022-09-01T09:48:34.269Z,99208.03
2022-09-01T09:51:23.345Z,99217.09
2022-09-01T09:53:50.988Z,99204.59
2022-09-01T09:56:24.347Z,99211.09
2022-09-01T09:58:54.272Z,99194.53
2022-09-01T10:01:26.091Z,99208.94
2022-09-01T10:04:00.313Z,99205.66
2022-09-01T10:06:37.896Z,99201.72
2022-09-01T10:09:17.670Z,99196.72
2022-09-01T10:11:57.453Z,99191.91
2022-09-01T10:15:04.661Z,99185.69
2022-09-01T10:17:44.159Z,99176.34
2022-09-01T10:20:14.636Z,99171.88
2022-09-01T10:22:42.517Z,99180.94
2022-09-01T10:25:21.249Z,99177.25
2022-09-01T10:27:58.427Z,99174.91
2022-09-01T10:30:27.685Z,99172.50
2022-09-01T10:33:06.846Z,99160.00
2022-09-01T10:35:45.566Z,99162.31
2022-09-01T10:38:20.786Z,99158.50
2022-09-01T10:41:14.135Z,99160.16
2022-09-01T10:43:49.006Z,99151.91
2022-09-01T10:46:26.612Z,99155.38
2022-09-01T10:49:02.898Z,99154.72
2022-09-01T10:51:36.173Z,99157.44
2022-09-01T10:54:06.851Z,99144.22
2022-09-01T10:56:54.025Z,99144.78
2022-09-01T10:59:33.727Z,99138.41
2022-09-01T11:02:26.710Z,99137.88
2022-09-01T11:04:55.897Z,99134.69
2022-09-01T11:07:44.468Z,99132.16
2022-09-01T11:10:36.446Z,99129.44
2022-09-01T11:13:37.130Z,99124.25
2022-09-01T11:16:46.993Z,99128.50
2022-09-01T11:19:18.191Z,99118.72
2022-09-01T11:21:46.098Z,99116.28
2022-09-01T11:24:50.831Z,99112.25
2022-09-01T11:27:50.514Z,99118.13
2022-09-01T11:30:50.723Z,99116.44
2022-09-01T11:33:36.870Z,99111.50
2022-09-01T11:36:31.901Z,99110.56
2022-09-01T11:39:05.723Z,99107.47
2022-09-01T11:42:07.183Z,99101.50
2022-09-01T11:44:59.061Z,99105.41
2022-09-01T11:47:33.169Z,99103.47
2022-09-01T11:50:07.665Z,99107.53
2022-09-01T11:52:38.385Z,99102.75
2022-09-01T11:55:08.637Z,99098.97
2022-09-01T11:57:41.665Z,99098.81
2022-09-01T12:00:18.135Z,99097.28
2022-09-01T12:02:54.454Z,99091.81
2022-09-01T12:05:36.824Z,99090.00
2022-09-01T12:08:18.467Z,99084.25
2022-09-01T12:10:56.127Z,99074.59
2022-09-01T12:13:25.485Z,99077.97
2022-09-01T12:16:17.028Z,99062.28
2022-09-01T12:18:52.028Z,99055.25
2022-09-01T12:21:38.304Z,99062.59
2022-09-01T12:24:11.660Z,99045.53
2022-09-01T12:26:40.228Z,99052.56
2022-09-01T12:29:08.117Z,99043.44
2022-09-01T12:31:36.487Z,99050.19
2022-09-01T12:34:04.811Z,99058.16
2022-09-01T12:36:38.764Z,99042.59
2022-09-01T12:39:18.423Z,99047.06
2022-09-01T12:42:06.984Z,99041.41
2022-09-01T12:44:46.914Z,99032.59
2022-09-01T12:47:34.406Z,99037.97
2022-09-01T12:50:13.744Z,99026.06
2022-09-01T12:52:54.153Z,99027.56
2022-09-01T12:55:52.054Z,99024.81
2022-09-01T12:58:26.256Z,99022.94
2022-09-01T13:01:17.225Z,99022.34
2022-09-01T13:04:15.538Z,99021.66
2022-09-01T13:06:43.284Z,99025.75
2022-09-01T13:09:10.875Z,99025.84
2022-09-01T13:14:49.760Z,99025.44
2022-09-01T13:17:17.762Z,99024.72
2022-09-01T13:19:45.239Z,99024.66
2022-09-01T13:22:12.747Z,99024.47
2022-09-01T13:24:40.285Z,99021.72
2022-09-01T13:27:23.580Z,99013.28
2022-09-01T13:29:52.041Z,99017.28
2022-09-01T13:32:22.062Z,99012.75
2022-09-01T13:34:52.721Z,99016.72
2022-09-01T13:37:22.480Z,99016.25
2022-09-01T13:39:50.597Z,99009.78
2022-09-01T13:42:18.692Z,99011.75
2022-09-01T13:44:49.607Z,99008.81
2022-09-01T13:47:34.005Z,99009.03
2022-09-01T13:50:11.450Z,99007.75
2022-09-01T13:52:43.471Z,99005.72
2022-09-01T13:55:17.122Z,99003.03
2022-09-01T13:57:44.792Z,98993.06
2022-09-01T14:00:18.074Z,98993.28
2022-09-01T14:02:50.178Z,98995.81
2022-09-01T14:05:27.488Z,98992.56
2022-09-01T14:07:56.233Z,98989.69
2022-09-01T14:10:27.285Z,98992.63
2022-09-01T14:12:55.602Z,98993.38
2022-09-01T14:15:27.330Z,98988.03
2022-09-01T14:17:58.067Z,98996.22
2022-09-01T14:20:36.877Z,98989.41
2022-09-01T14:23:06.690Z,98990.28
2022-09-01T14:25:34.844Z,98984.81
2022-09-01T14:28:03.212Z,98985.78
2022-09-01T14:30:33.123Z,98988.78
2022-09-01T14:33:02.230Z,98984.19
2022-09-01T14:35:33.724Z,98980.44
2022-09-01T14:38:05.338Z,98977.13
2022-09-01T14:40:32.855Z,98986.34
2022-09-01T14:43:00.836Z,98987.66
2022-09-01T14:45:31.323Z,98982.41
2022-09-01T14:48:01.101Z,98983.91
2022-09-01T14:50:35.045Z,98973.53
2022-09-01T14:53:05.329Z,98979.75
2022-09-01T14:55:33.068Z,98970.69
2022-09-01T14:58:00.894Z,98970.09
2022-09-01T15:00:30.238Z,98960.28
2022-09-01T15:02:58.720Z,98956.88
2022-09-01T15:05:26.427Z,98960.41
2022-09-01T15:07:54.603Z,98953.72
2022-09-01T15:10:26.006Z,98957.13
2022-09-01T15:12:59.706Z,98952.47
2022-09-01T15:15:29.651Z,98953.44
2022-09-01T15:17:59.150Z,98953.81
2022-09-01T15:20:45.363Z,98954.00
2022-09-01T15:23:22.875Z,98955.13
2022-09-01T15:25:54.271Z,98957.69
2022-09-01T15:28:22.798Z,98955.09
2022-09-01T15:30:51.723Z,98947.69
2022-09-01T15:33:22.526Z,98950.78
2022-09-01T15:35:50.083Z,98956.19
2022-09-01T15:38:18.355Z,98946.00
2022-09-01T15:40:57.144Z,98955.00
2022-09-01T15:43:27.839Z,98959.59
2022-09-01T15:45:58.346Z,98957.13
2022-09-01T15:48:30.340Z,98958.53
2022-09-01T15:51:30.587Z,98960.97
2022-09-01T15:54:08.899Z,98958.28
2022-09-01T15:56:37.094Z,98967.63
2022-09-01T15:59:07.528Z,98963.22
2022-09-01T16:01:41.896Z,98962.03
2022-09-01T16:04:19.087Z,98957.50
2022-09-01T16:06:49.628Z,98958.38
2022-09-01T16:09:20.894Z,98960.66
2022-09-01T16:11:48.729Z,98964.91
2022-09-01T16:14:16.497Z,98962.75
2022-09-01T16:17:13.843Z,98965.97
2022-09-01T16:20:14.458Z,98962.47
2022-09-01T16:22:54.759Z,98959.19
2022-09-01T16:25:32.427Z,98963.28
2022-09-01T16:28:23.298Z,98962.38
2022-09-01T16:30:54.477Z,98965.25
2022-09-01T16:33:22.163Z,98965.72
2022-09-01T16:36:08.314Z,98970.16
2022-09-01T16:38:39.423Z,98968.38
2022-09-01T16:41:44.053Z,98965.19
2022-09-01T16:44:45.206Z,98968.03
2022-09-01T16:47:35.119Z,98962.78
2022-09-01T16:50:29.891Z,98962.78
2022-09-01T16:53:18.237Z,98959.44
2022-09-01T16:56:13.122Z,98961.19
2022-09-01T16:58:52.292Z,98971.91
2022-09-01T17:02:23.019Z,98962.66
2022-09-01T17:05:19.158Z,98967.72
2022-09-01T17:08:26.146Z,98966.19
2022-09-01T17:11:10.458Z,98974.69
2022-09-01T17:13:43.918Z,98973.41
2022-09-01T17:16:42.699Z,98980.03
2022-09-01T17:19:18.841Z,98993.75
2022-09-01T17:21:54.018Z,99000.03
2022-09-01T17:24:43.844Z,99004.19
2022-09-01T17:27:40.116Z,99016.19
2022-09-01T17:30:08.569Z,99012.09
2022-09-01T17:33:18.679Z,99020.41
2022-09-01T17:35:46.568Z,99035.09
2022-09-01T17:38:32.740Z,99038.22
2022-09-01T17:41:23.663Z,99039.53
2022-09-01T17:44:14.592Z,99038.88
2022-09-01T17:46:58.265Z,99045.41
2022-09-01T17:49:50.958Z,99044.91
2022-09-01T17:52:55.231Z,99041.13
2022-09-01T17:55:43.106Z,99047.69
2022-09-01T17:58:23.086Z,99052.69
2022-09-01T18:01:15.687Z,99057.31
2022-09-01T18:04:36.182Z,99058.25
2022-09-01T18:07:20.710Z,99068.63
2022-09-01T18:09:55.285Z,99068.63
2022-09-01T18:12:31.503Z,99076.22
2022-09-01T18:15:20.293Z,99071.97
2022-09-01T18:18:15.389Z,99078.97
2022-09-01T18:20:46.870Z,99075.06
2022-09-01T18:23:39.185Z,99088.63
2022-09-01T18:26:22.992Z,99087.75
2022-09-01T18:28:55.827Z,99097.53
2022-09-01T18:31:35.363Z,99095.97
2022-09-01T18:34:29.841Z,99094.56
2022-09-01T18:37:37.550Z,99105.28
2022-09-01T18:40:15.879Z,99105.53
2022-09-01T18:43:17.337Z,99109.09
2022-09-01T18:45:56.986Z,99108.09
2022-09-01T18:48:52.757Z,99113.63
2022-09-01T18:51:33.238Z,99109.47
2022-09-01T18:54:31.796Z,99103.63
2022-09-01T18:57:19.076Z,99111.00
2022-09-01T19:00:18.628Z,99110.72
2022-09-01T19:03:28.507Z,99111.88
2022-09-01T19:06:27.045Z,99114.75
2022-09-01T19:09:01.476Z,99113.13
2022-09-01T19:12:16.670Z,99123.28
2022-09-01T19:15:13.867Z,99117.25
2022-09-01T19:18:23.109Z,99120.41
2022-09-01T19:21:32.632Z,99112.19
2022-09-01T19:24:15.921Z,99106.03
2022-09-01T19:27:04.835Z,99110.22
2022-09-01T19:30:02.384Z,99108.72
2022-09-01T19:32:40.521Z,99108.72
2022-09-01T19:35:18.062Z,99106.44
2022-09-01T19:37:51.519Z,99095.19
2022-09-01T19:40:33.488Z,99103.81
2022-09-01T19:43:10.186Z,99104.22
2022-09-01T19:46:06.254Z,99105.09
2022-09-01T19:48:58.318Z,99107.94
2022-09-01T19:51:42.092Z,99113.16
2022-09-01T19:54:27.810Z,99108.78
2022-09-01T19:57:21.194Z,99110.97
2022-09-01T20:00:10.638Z,99111.56
2022-09-01T20:02:53.767Z,99117.69
2022-09-01T20:05:58.920Z,99117.94
2022-09-01T20:09:04.195Z,99124.50
2022-09-01T20:11:52.249Z,99127.34
2022-09-01T20:14:52.770Z,99135.06
2022-09-01T20:17:58.085Z,99138.75
2022-09-01T20:21:07.925Z,99136.78
2022-09-01T20:24:06.345Z,99142.63
2022-09-01T20:26:48.495Z,99142.91
2022-09-01T20:29:33.025Z,99141.31
2022-09-01T20:32:07.268Z,99149.75
2022-09-01T20:34:54.998Z,99149.09
2022-09-01T20:37:34.157Z,99160.75
2022-09-01T20:40:25.056Z,99162.25
2022-09-01T20:43:19.352Z,99168.47
2022-09-01T20:45:47.374Z,99164.75
2022-09-01T20:48:27.789Z,99167.31
2022-09-01T20:51:41.442Z,99165.03
2022-09-01T20:54:30.116Z,99177.28
2022-09-01T20:57:00.410Z,99173.91
2022-09-01T20:59:56.809Z,99174.47
2022-09-01T21:02:46.072Z,99164.91
2022-09-01T21:05:46.304Z,99158.94
2022-09-01T21:08:39.051Z,99157.19
2022-09-01T21:11:55.341Z,99159.88
2022-09-01T21:14:51.059Z,99162.09
2022-09-01T21:17:58.700Z,99165.66
2022-09-01T21:21:21.072Z,99169.78
2022-09-01T21:23:48.692Z,99178.53
2022-09-01T21:26:16.252Z,99180.75
2022-09-01T21:28:48.031Z,99178.22
2022-09-01T21:31:15.906Z,99184.94
2022-09-01T21:33:44.705Z,99191.50
2022-09-01T21:36:12.425Z,99195.09
2022-09-01T21:38:40.179Z,99201.63
2022-09-01T21:41:12.975Z,99204.09
2022-09-01T21:43:44.715Z,99199.69
2022-09-01T21:46:14.681Z,99212.41
2022-09-01T21:48:42.687Z,99218.22
2022-09-01T21:51:10.328Z,99215.78
2022-09-01T21:53:37.900Z,99221.94
2022-09-01T21:56:06.096Z,99222.25
2022-09-01T21:58:36.341Z,99216.41
2022-09-01T22:01:05.488Z,99222.28
2022-09-01T22:03:33.531Z,99214.84
2022-09-01T22:06:01.143Z,99211.16
2022-09-01T22:08:28.700Z,99211.28
2022-09-01T22:10:56.447Z,99206.78
2022-09-01T22:13:25.526Z,99214.19
2022-09-01T22:15:54.629Z,99215.41
2022-09-01T22:18:23.068Z,99208.72
2022-09-01T22:20:50.728Z,99203.47
2022-09-01T22:23:20.446Z,99214.59
2022-09-01T22:25:48.576Z,99212.47
2022-09-01T22:28:16.063Z,99220.19
2022-09-01T22:30:51.390Z,99226.09
2022-09-01T22:33:21.392Z,99224.81
2022-09-01T22:35:53.583Z,99231.19
2022-09-01T22:38:22.564Z,99219.03
2022-09-01T22:40:55.129Z,99223.47
2022-09-01T22:43:28.185Z,99219.47
2022-09-01T22:45:58.375Z,99216.94
2022-09-01T22:48:27.815Z,99221.69
2022-09-01T22:50:55.481Z,99214.00
2022-09-01T22:53:24.043Z,99209.69
2022-09-01T22:55:52.838Z,99204.19
2022-09-01T22:58:21.245Z,99207.41
2022-09-01T23:00:54.261Z,99201.84
2022-09-01T23:03:23.805Z,99200.88
2022-09-01T23:06:07.629Z,99202.97
2022-09-01T23:08:36.063Z,99194.44
2022-09-01T23:11:03.830Z,99199.81
2022-09-01T23:13:31.649Z,99194.84
2022-09-01T23:16:04.621Z,99187.75
2022-09-01T23:18:35.568Z,99199.78
2022-09-01T23:21:05.302Z,99196.22
2022-09-01T23:23:33.784Z,99209.16
2022-09-01T23:26:04.082Z,99211.41
2022-09-01T23:28:32.642Z,99204.97
2022-09-01T23:31:00.560Z,99210.22
2022-09-01T23:33:30.263Z,99210.22
2022-09-01T23:35:57.930Z,99213.09
2022-09-01T23:38:26.691Z,99205.22
2022-09-01T23:40:57.024Z,99213.97
2022-09-01T23:43:26.259Z,99211.44
2022-09-01T23:45:57.299Z,99216.31
2022-09-01T23:48:25.685Z,99207.09
2022-09-01T23:50:57.923Z,99207.38
2022-09-01T23:53:33.645Z,99200.47
2022-09-01T23:56:04.570Z,99199.94
2022-09-01T23:58:32.909Z,99207.19
